Time;durP1;ratioP1;P1;durP2;ratioP2;P2;SDS_P1;SDS_P2;PMS_P1;PMS_P2;Temp;Humidity;BMP_temperature;BMP_pressure;BME280_temperature;BME280_humidity;BME280_pressure;Samples;Min_cycle;Max_cycle;Signal;HPM_P1;HPM_P2
2023/06/03 00:02:29;;;;;;;16.10;8.15;;;;;;;13.10;100.00;101928.25;5268798;28;20604;-68
2023/06/03 00:05:03;;;;;;;13.73;8.38;;;;;;;13.02;100.00;101920.75;5268199;28;20427;-67
2023/06/03 00:07:35;;;;;;;17.67;8.35;;;;;;;13.03;100.00;101919.78;5269667;28;20380;-67
2023/06/03 00:10:06;;;;;;;13.75;8.00;;;;;;;12.95;100.00;101920.31;5264838;28;20491;-67
2023/06/03 00:12:38;;;;;;;13.43;8.07;;;;;;;12.97;100.00;101922.91;5270272;28;20079;-67
2023/06/03 00:15:09;;;;;;;16.33;8.63;;;;;;;12.92;100.00;101917.00;5263119;28;20062;-67
2023/06/03 00:17:41;;;;;;;16.75;8.48;;;;;;;12.88;100.00;101924.38;5267805;28;20028;-67
2023/06/03 00:20:13;;;;;;;14.05;8.25;;;;;;;12.86;100.00;101912.06;5256890;28;20093;-69
2023/06/03 00:22:46;;;;;;;16.60;8.63;;;;;;;12.86;100.00;101918.28;5256907;28;20045;-67
2023/06/03 00:25:18;;;;;;;14.30;8.10;;;;;;;12.84;100.00;101925.56;5267612;28;20038;-67
2023/06/03 00:27:49;;;;;;;16.42;8.52;;;;;;;12.92;100.00;101925.91;5266960;28;20028;-71
2023/06/03 00:30:21;;;;;;;14.40;8.20;;;;;;;12.85;100.00;101929.97;5271628;28;20033;-67
2023/06/03 00:32:52;;;;;;;14.68;8.52;;;;;;;12.81;100.00;101924.91;5267597;28;20023;-67
2023/06/03 00:35:24;;;;;;;15.27;8.10;;;;;;;12.83;100.00;101928.34;5267127;28;20023;-67
2023/06/03 00:37:55;;;;;;;17.45;8.45;;;;;;;12.79;100.00;101924.16;5261487;28;20024;-67
2023/06/03 00:40:27;;;;;;;17.90;8.68;;;;;;;12.85;100.00;101923.75;5264726;28;20137;-67
2023/06/03 00:42:58;;;;;;;15.65;7.93;;;;;;;12.78;100.00;101922.47;5266438;28;20040;-67
2023/06/03 00:45:29;;;;;;;17.30;8.68;;;;;;;12.77;100.00;101918.03;5263894;28;20028;-67
2023/06/03 00:48:01;;;;;;;16.13;7.53;;;;;;;12.71;100.00;101925.56;5262427;28;20031;-67
2023/06/03 00:50:33;;;;;;;13.43;7.72;;;;;;;12.68;100.00;101923.06;5266932;28;20036;-67
2023/06/03 00:53:06;;;;;;;16.42;8.10;;;;;;;12.72;100.00;101926.41;5270632;28;20017;-67
2023/06/03 00:55:38;;;;;;;12.40;7.75;;;;;;;12.68;100.00;101922.22;5266587;28;20111;-67
2023/06/03 00:58:10;;;;;;;14.63;8.35;;;;;;;12.68;100.00;101917.72;5267385;28;20453;-67
2023/06/03 01:00:42;;;;;;;14.45;8.00;;;;;;;12.72;100.00;101924.56;5265197;28;20040;-67
2023/06/03 01:03:14;;;;;;;12.25;7.68;;;;;;;12.63;100.00;101921.66;5264327;28;20035;-67
2023/06/03 01:06:14;;;;;;;20.23;8.05;;;;;;;12.64;100.00;101926.09;5267156;28;20139;-67
2023/06/03 01:08:55;;;;;;;16.70;8.60;;;;;;;12.60;100.00;101929.91;5269745;28;20077;-67
2023/06/03 01:11:42;;;;;;;14.07;8.38;;;;;;;12.61;100.00;101921.78;5272669;28;20162;-67
2023/06/03 01:14:38;;;;;;;14.63;7.97;;;;;;;12.51;100.00;101926.03;5271295;28;20044;-67
2023/06/03 01:17:12;;;;;;;15.57;8.20;;;;;;;12.51;100.00;101921.53;5269679;28;20044;-67
2023/06/03 01:19:49;;;;;;;;;;;;;;;12.63;100.00;101925.19;5270212;28;20475;-67
2023/06/03 01:22:24;;;;;;;14.38;8.35;;;;;;;12.45;100.00;101921.97;5271907;28;19921;-67
2023/06/03 01:25:04;;;;;;;14.02;8.02;;;;;;;12.42;100.00;101930.19;5270976;28;20026;-67
2023/06/03 01:27:39;;;;;;;15.18;8.23;;;;;;;12.36;100.00;101918.06;5273373;28;20028;-67
2023/06/03 01:30:14;;;;;;;14.27;7.80;;;;;;;12.31;100.00;101925.56;5274402;28;21604;-67
2023/06/03 01:32:47;;;;;;;13.63;7.95;;;;;;;12.29;100.00;101923.94;5266557;28;20143;-67
2023/06/03 01:35:19;;;;;;;12.85;7.97;;;;;;;12.24;100.00;101918.91;5266708;28;20384;-67
2023/06/03 01:37:51;;;;;;;17.52;8.32;;;;;;;12.25;100.00;101925.94;5267918;28;20033;-67
2023/06/03 01:40:23;;;;;;;13.52;7.65;;;;;;;12.20;100.00;101922.75;5270234;28;20032;-67
2023/06/03 01:42:55;;;;;;;14.93;7.68;;;;;;;12.18;100.00;101915.75;5260976;28;20047;-67
2023/06/03 01:45:26;;;;;;;16.58;8.60;;;;;;;12.16;100.00;101919.41;5274156;28;20470;-67
2023/06/03 01:47:59;;;;;;;13.20;7.47;;;;;;;12.14;100.00;101918.66;5270400;28;20032;-67
2023/06/03 01:50:30;;;;;;;16.65;7.82;;;;;;;12.08;100.00;101913.72;5273585;28;20024;-67
2023/06/03 01:53:02;;;;;;;15.85;8.27;;;;;;;12.11;100.00;101921.50;5272485;28;20554;-67
2023/06/03 01:55:33;;;;;;;15.68;8.73;;;;;;;12.15;100.00;101924.84;5268677;28;20028;-67
2023/06/03 01:58:05;;;;;;;15.35;7.72;;;;;;;12.06;100.00;101920.09;5274428;28;20065;-67
2023/06/03 02:00:37;;;;;;;14.20;8.23;;;;;;;12.08;100.00;101918.19;5275591;28;20042;-67
2023/06/03 02:03:08;;;;;;;16.00;7.97;;;;;;;12.06;100.00;101920.97;5285667;28;20034;-67
2023/06/03 02:05:39;;;;;;;14.05;7.95;;;;;;;11.97;100.00;101916.22;5274759;28;20345;-67
2023/06/03 02:08:11;;;;;;;17.20;8.75;;;;;;;11.98;100.00;101922.44;5273324;28;20118;-67
2023/06/03 02:10:42;;;;;;;14.00;7.50;;;;;;;11.95;100.00;101929.69;5275868;28;20036;-67
2023/06/03 02:13:14;;;;;;;13.23;7.35;;;;;;;11.91;100.00;101922.84;5270805;28;20051;-67
2023/06/03 02:15:45;;;;;;;14.20;7.65;;;;;;;11.99;100.00;101919.66;5276803;28;20031;-67
2023/06/03 02:18:17;;;;;;;15.13;7.57;;;;;;;11.89;100.00;101922.06;5276413;28;20101;-67
2023/06/03 02:20:48;;;;;;;14.32;7.18;;;;;;;11.89;100.00;101916.72;5277541;28;20420;-67
2023/06/03 02:23:21;;;;;;;12.23;7.40;;;;;;;11.85;100.00;101915.19;5279499;28;20085;-67
2023/06/03 02:25:52;;;;;;;13.40;7.68;;;;;;;11.88;100.00;101917.63;5268234;28;20047;-67
2023/06/03 02:28:24;;;;;;;17.55;8.70;;;;;;;11.90;100.00;101915.75;5267655;28;20032;-67
2023/06/03 02:30:56;;;;;;;15.70;7.00;;;;;;;11.84;100.00;101912.59;5268597;28;20382;-67
2023/06/03 02:33:27;;;;;;;12.63;7.85;;;;;;;11.78;100.00;101917.38;5264860;28;20041;-67
2023/06/03 02:35:58;;;;;;;12.65;7.97;;;;;;;11.75;100.00;101917.59;5270400;28;20037;-67
2023/06/03 02:38:30;;;;;;;17.20;8.20;;;;;;;11.78;100.00;101919.19;5265545;28;20028;-67
2023/06/03 02:41:01;;;;;;;14.60;7.55;;;;;;;11.81;100.00;101921.66;5268556;28;20028;-67
2023/06/03 02:43:33;;;;;;;13.27;7.65;;;;;;;11.91;100.00;101925.50;5269954;28;20039;-67
2023/06/03 02:46:05;;;;;;;14.45;6.70;;;;;;;11.75;100.00;101932.75;5260599;28;20036;-67
2023/06/03 02:48:37;;;;;;;13.15;7.53;;;;;;;11.76;100.00;101918.44;5265809;28;20487;-67
2023/06/03 02:51:09;;;;;;;12.85;7.82;;;;;;;11.72;100.00;101927.63;5269502;28;21214;-67
2023/06/03 02:53:40;;;;;;;12.88;7.28;;;;;;;11.73;100.00;101915.97;5269293;28;20024;-67
2023/06/03 02:56:12;;;;;;;15.38;7.97;;;;;;;11.83;100.00;101922.44;5268932;28;20058;-67
2023/06/03 02:58:43;;;;;;;13.88;7.47;;;;;;;11.68;100.00;101923.44;5268110;28;20054;-67
2023/06/03 03:01:15;;;;;;;10.35;6.80;;;;;;;11.72;100.00;101925.81;5272209;28;20036;-67
2023/06/03 03:03:46;;;;;;;16.90;7.00;;;;;;;11.67;100.00;101921.69;5271416;28;20016;-67
2023/06/03 03:06:21;;;;;;;11.43;7.50;;;;;;;11.60;100.00;101920.38;5268866;28;20049;-67
2023/06/03 03:08:53;;;;;;;11.60;6.53;;;;;;;11.61;100.00;101922.09;5274678;28;20025;-67
2023/06/03 03:11:25;;;;;;;12.00;7.15;;;;;;;11.61;100.00;101914.09;5274588;28;20119;-67
2023/06/03 03:13:58;;;;;;;12.95;7.35;;;;;;;11.57;100.00;101914.25;5273735;28;20390;-67
2023/06/03 03:16:29;;;;;;;13.60;7.72;;;;;;;11.60;100.00;101923.88;5273525;28;20106;-67
2023/06/03 03:19:00;;;;;;;11.18;6.88;;;;;;;11.53;100.00;101922.59;5270650;28;20111;-67
2023/06/03 03:21:33;;;;;;;12.70;6.95;;;;;;;11.50;100.00;101936.97;5265474;28;20032;-67
2023/06/03 03:24:05;;;;;;;15.65;7.32;;;;;;;11.46;100.00;101932.78;5274943;28;20016;-67
2023/06/03 03:26:36;;;;;;;12.90;7.47;;;;;;;11.43;100.00;101929.44;5267941;28;20563;-67
2023/06/03 03:29:08;;;;;;;13.65;6.88;;;;;;;11.43;100.00;101932.13;5270935;28;20020;-67
2023/06/03 03:31:39;;;;;;;15.27;7.03;;;;;;;11.43;100.00;101933.00;5277611;28;20477;-67
2023/06/03 03:34:12;;;;;;;11.95;7.80;;;;;;;11.31;100.00;101933.75;5276990;28;20024;-68
2023/06/03 03:36:46;;;;;;;13.32;8.43;;;;;;;11.27;100.00;101937.56;5266365;28;20064;-67
2023/06/03 03:39:17;;;;;;;12.38;8.27;;;;;;;11.27;100.00;101932.22;5271861;28;20043;-67
2023/06/03 03:41:48;;;;;;;12.02;7.40;;;;;;;11.21;100.00;101940.63;5264701;28;20037;-67
2023/06/03 03:44:20;;;;;;;12.27;7.60;;;;;;;11.22;100.00;101940.53;5271449;28;20698;-67
2023/06/03 03:46:58;;;;;;;12.23;8.05;;;;;;;11.19;100.00;101936.22;5272963;28;20037;-67
2023/06/03 03:49:34;;;;;;;9.70;7.03;;;;;;;11.18;100.00;101936.34;5270560;28;20514;-67
2023/06/03 03:52:06;;;;;;;12.95;7.18;;;;;;;11.16;100.00;101928.41;5273886;28;20076;-67
2023/06/03 03:54:37;;;;;;;11.68;7.82;;;;;;;11.16;100.00;101936.44;5274091;28;20025;-67
2023/06/03 03:57:12;;;;;;;13.27;8.40;;;;;;;11.14;100.00;101938.34;5269963;28;20342;-67
2023/06/03 03:59:43;;;;;;;11.57;7.78;;;;;;;11.13;100.00;101941.94;5271137;28;20035;-67
2023/06/03 04:02:15;;;;;;;10.85;7.60;;;;;;;11.20;100.00;101937.09;5277428;28;20413;-67
2023/06/03 04:04:46;;;;;;;13.20;7.95;;;;;;;11.14;100.00;101943.69;5280626;28;20032;-67
2023/06/03 04:07:20;;;;;;;13.73;7.80;;;;;;;11.12;100.00;101934.91;5274950;28;20407;-67
2023/06/03 04:09:51;;;;;;;12.82;7.10;;;;;;;11.13;100.00;101941.94;5266972;28;20386;-67
2023/06/03 04:12:29;;;;;;;11.57;6.80;;;;;;;11.17;100.00;101940.81;5268134;28;20050;-67
2023/06/03 04:15:01;;;;;;;11.40;7.63;;;;;;;11.16;100.00;101939.09;5263399;28;20158;-67
2023/06/03 04:17:37;;;;;;;11.57;7.18;;;;;;;11.16;100.00;101933.75;5265115;28;20032;-67
2023/06/03 04:20:34;;;;;;;10.60;7.07;;;;;;;11.19;100.00;101936.22;5263707;28;20032;-67
2023/06/03 04:23:12;;;;;;;13.20;7.72;;;;;;;11.19;100.00;101941.56;5263650;28;20044;-67
2023/06/03 04:25:44;;;;;;;10.43;7.07;;;;;;;11.21;100.00;101940.63;5267140;28;20032;-67
2023/06/03 04:28:15;;;;;;;13.82;8.23;;;;;;;11.25;100.00;101944.81;5266288;28;20096;-67
2023/06/03 04:30:46;;;;;;;12.18;7.65;;;;;;;11.22;100.00;101950.34;5267730;28;20687;-67
2023/06/03 04:33:18;;;;;;;12.40;7.63;;;;;;;11.29;100.00;101946.34;5272497;28;20384;-67
2023/06/03 04:35:50;;;;;;;12.02;7.75;;;;;;;11.27;100.00;101954.44;5266228;28;20035;-67
2023/06/03 04:38:22;;;;;;;10.57;6.88;;;;;;;11.32;100.00;101947.03;5274549;28;20040;-67
2023/06/03 04:40:54;;;;;;;11.48;7.70;;;;;;;11.38;100.00;101943.97;5267700;28;20027;-67
2023/06/03 04:43:26;;;;;;;10.55;7.35;;;;;;;11.39;100.00;101952.84;5263691;28;20023;-67
2023/06/03 04:45:57;;;;;;;15.27;7.18;;;;;;;11.45;100.00;101949.78;5263566;28;20025;-67
2023/06/03 04:48:30;;;;;;;11.55;7.57;;;;;;;11.40;100.00;101953.72;5265739;28;20069;-67
2023/06/03 04:51:06;;;;;;;10.90;7.32;;;;;;;11.41;100.00;101948.28;5268987;28;20035;-67
2023/06/03 04:53:40;;;;;;;12.00;6.78;;;;;;;11.53;100.00;101960.84;5264092;28;20043;-67
2023/06/03 04:56:12;;;;;;;11.73;6.75;;;;;;;11.47;100.00;101953.22;5260083;28;20032;-67
2023/06/03 04:58:44;;;;;;;10.50;6.60;;;;;;;11.46;100.00;101959.50;5262314;28;20041;-67
2023/06/03 05:01:17;;;;;;;12.60;7.05;;;;;;;11.44;100.00;101953.41;5263119;28;20025;-67
2023/06/03 05:03:49;;;;;;;10.88;6.65;;;;;;;11.47;100.00;101958.56;5271366;28;20028;-67
2023/06/03 05:06:20;;;;;;;13.07;6.63;;;;;;;11.50;100.00;101952.16;5267616;28;20053;-67
2023/06/03 05:08:52;;;;;;;10.45;6.40;;;;;;;11.51;100.00;101957.44;5274731;28;20035;-67
2023/06/03 05:11:23;;;;;;;12.55;6.78;;;;;;;11.58;100.00;101956.09;5265630;28;20021;-67
2023/06/03 05:13:55;;;;;;;11.88;7.32;;;;;;;11.68;100.00;101952.84;5268553;28;20082;-67
2023/06/03 05:16:26;;;;;;;11.50;7.47;;;;;;;11.60;100.00;101944.44;5272384;28;20167;-67
2023/06/03 05:18:58;;;;;;;10.50;6.63;;;;;;;11.70;100.00;101953.59;5268554;28;20565;-67
2023/06/03 05:21:29;;;;;;;9.27;6.25;;;;;;;11.68;100.00;101955.50;5276607;28;20440;-67
2023/06/03 05:24:00;;;;;;;9.50;6.07;;;;;;;11.71;100.00;101957.97;5275874;28;20071;-67
2023/06/03 05:26:32;;;;;;;8.45;5.90;;;;;;;11.75;100.00;101955.03;5272970;28;20554;-67
2023/06/03 05:29:03;;;;;;;9.93;5.75;;;;;;;11.80;100.00;101954.72;5271082;28;20032;-67
2023/06/03 05:31:35;;;;;;;10.10;6.30;;;;;;;11.84;100.00;101953.56;5273814;28;20394;-67
2023/06/03 05:34:06;;;;;;;9.52;5.30;;;;;;;11.88;100.00;101952.41;5267350;28;20032;-67
2023/06/03 05:36:38;;;;;;;9.77;5.72;;;;;;;11.88;100.00;101959.56;5277905;28;20066;-67
2023/06/03 05:39:11;;;;;;;10.77;5.18;;;;;;;11.87;100.00;101957.84;5268770;28;20031;-67
2023/06/03 05:41:42;;;;;;;7.90;5.00;;;;;;;11.90;100.00;101952.34;5270253;28;20025;-67
2023/06/03 05:44:14;;;;;;;8.07;5.05;;;;;;;12.00;100.00;101953.47;5270154;28;20110;-67
2023/06/03 05:46:45;;;;;;;8.02;4.50;;;;;;;11.96;100.00;101952.78;5271673;28;20039;-67
2023/06/03 05:49:17;;;;;;;8.70;4.72;;;;;;;12.00;100.00;101955.28;5266013;28;20048;-67
2023/06/03 05:51:48;;;;;;;6.75;4.57;;;;;;;12.11;100.00;101947.41;5269418;28;20059;-67
2023/06/03 05:54:19;;;;;;;8.98;4.38;;;;;;;12.13;100.00;101950.84;5268584;28;20752;-67
2023/06/03 05:56:51;;;;;;;9.48;5.15;;;;;;;12.14;100.00;101949.91;5261640;28;20462;-67
2023/06/03 05:59:23;;;;;;;7.57;4.60;;;;;;;12.22;100.00;101950.25;5271177;28;20399;-67
2023/06/03 06:01:54;;;;;;;9.05;4.80;;;;;;;12.23;100.00;101967.16;5266143;28;20383;-67
2023/06/03 06:04:26;;;;;;;11.10;4.47;;;;;;;12.25;100.00;101952.72;5264615;28;20025;-67
2023/06/03 06:06:57;;;;;;;9.85;4.45;;;;;;;12.34;100.00;101956.59;5271711;28;20464;-67
2023/06/03 06:09:29;;;;;;;8.30;4.07;;;;;;;12.39;100.00;101962.53;5265758;28;20489;-67
2023/06/03 06:12:00;;;;;;;9.55;4.63;;;;;;;12.46;100.00;101949.56;5274572;28;20028;-67
2023/06/03 06:14:32;;;;;;;8.25;4.38;;;;;;;12.50;100.00;101956.44;5267583;28;20025;-67
2023/06/03 06:17:03;;;;;;;6.90;3.97;;;;;;;12.50;100.00;101956.44;5265033;28;20029;-67
2023/06/03 06:19:35;;;;;;;6.63;4.00;;;;;;;12.63;100.00;101956.47;5264454;28;20032;-67
2023/06/03 06:22:07;;;;;;;6.28;3.95;;;;;;;12.72;100.00;101961.22;5268472;28;20342;-67
2023/06/03 06:24:38;;;;;;;6.93;4.47;;;;;;;12.83;100.00;101963.16;5264974;28;20039;-67
2023/06/03 06:27:10;;;;;;;9.25;4.18;;;;;;;12.90;100.00;101956.41;5268073;28;20050;-67
2023/06/03 06:29:41;;;;;;;6.32;3.60;;;;;;;13.06;100.00;101965.13;5275741;28;20028;-67
2023/06/03 06:32:21;;;;;;;8.18;4.00;;;;;;;13.19;100.00;101964.25;5271245;28;20064;-67
2023/06/03 06:34:53;;;;;;;6.88;3.72;;;;;;;13.24;100.00;101960.31;5271388;28;20192;-67
2023/06/03 06:37:24;;;;;;;8.05;4.05;;;;;;;13.42;100.00;101966.22;5265700;28;20048;-67
2023/06/03 06:39:56;;;;;;;6.85;3.50;;;;;;;13.53;100.00;101960.94;5272814;28;20029;-67
2023/06/03 06:42:36;;;;;;;5.88;3.25;;;;;;;13.64;100.00;101965.56;5266190;28;20024;-67
2023/06/03 06:45:22;;;;;;;9.32;3.78;;;;;;;13.76;100.00;101957.59;5268716;28;20117;-67
2023/06/03 06:48:13;;;;;;;5.43;3.30;;;;;;;13.85;100.00;101967.66;5266217;28;20111;-67
2023/06/03 06:50:47;;;;;;;7.22;3.72;;;;;;;14.01;100.00;101964.72;5274436;28;20083;-67
2023/06/03 06:53:20;;;;;;;7.43;3.78;;;;;;;14.09;100.00;101967.69;5288426;28;20024;-67
2023/06/03 06:55:54;;;;;;;6.10;3.63;;;;;;;14.16;100.00;101968.97;5265433;28;20029;-67
2023/06/03 06:58:29;;;;;;;;;;;;;;;14.28;100.00;101965.34;5273880;28;20060;-67
2023/06/03 07:01:05;;;;;;;5.30;3.60;;;;;;;14.27;100.00;101974.41;5268929;28;19916;-67
2023/06/03 07:03:37;;;;;;;5.43;3.35;;;;;;;14.48;100.00;101974.63;5275096;28;20028;-67
2023/06/03 07:06:08;;;;;;;5.70;3.40;;;;;;;14.57;100.00;101965.03;5272309;28;20090;-67
2023/06/03 07:08:40;;;;;;;9.57;3.60;;;;;;;14.68;100.00;101962.38;5270167;28;20028;-67
2023/06/03 07:11:11;;;;;;;5.53;3.25;;;;;;;14.81;100.00;101964.16;5280291;28;20029;-67
2023/06/03 07:13:42;;;;;;;7.15;3.38;;;;;;;14.89;100.00;101969.78;5277584;28;20071;-67
2023/06/03 07:16:15;;;;;;;5.95;3.20;;;;;;;14.97;100.00;101961.13;5266596;28;20571;-67
2023/06/03 07:18:50;;;;;;;6.57;3.40;;;;;;;15.10;100.00;101965.44;5272445;28;20071;-67
2023/06/03 07:21:25;;;;;;;6.93;3.17;;;;;;;15.24;100.00;101955.44;5274288;28;20025;-67
2023/06/03 07:23:58;;;;;;;6.65;3.15;;;;;;;15.28;100.00;101956.91;5273680;28;20028;-67
2023/06/03 07:26:32;;;;;;;5.90;2.67;;;;;;;15.41;100.00;101960.34;5267707;28;20525;-67
2023/06/03 07:29:04;;;;;;;7.90;2.95;;;;;;;15.48;100.00;101961.56;5277207;28;20021;-68
2023/06/03 07:31:36;;;;;;;6.63;2.35;;;;;;;15.69;100.00;101961.69;5275135;28;20043;-67
2023/06/03 07:34:08;;;;;;;6.20;2.65;;;;;;;15.80;100.00;101960.84;5278502;28;20394;-68
2023/06/03 07:36:39;;;;;;;4.88;2.65;;;;;;;15.90;100.00;101960.97;5272501;28;21468;-68
2023/06/03 07:39:17;;;;;;;7.68;2.47;;;;;;;15.99;100.00;101959.34;5275983;28;20028;-67
2023/06/03 07:41:50;;;;;;;4.63;2.30;;;;;;;16.11;100.00;101957.47;5277584;28;20032;-67
2023/06/03 07:44:34;;;;;;;7.57;3.75;;;;;;;16.09;100.00;101960.31;5274057;28;20043;-68
2023/06/03 07:47:05;;;;;;;5.10;2.60;;;;;;;16.23;100.00;101957.31;5271744;28;20095;-68
2023/06/03 07:49:37;;;;;;;3.95;2.10;;;;;;;16.44;100.00;101960.06;5279155;28;20077;-68
2023/06/03 07:52:21;;;;;;;6.75;1.95;;;;;;;16.52;100.00;101963.97;5275793;28;20030;-68
2023/06/03 07:54:52;;;;;;;5.20;2.22;;;;;;;16.71;100.00;101966.81;5279153;28;20032;-68
2023/06/03 07:57:23;;;;;;;6.00;1.98;;;;;;;16.73;100.00;101966.69;5267269;28;20047;-67
2023/06/03 07:59:56;;;;;;;7.55;2.60;;;;;;;16.89;100.00;101974.34;5262389;28;20032;-68
2023/06/03 08:02:27;;;;;;;5.22;2.15;;;;;;;17.01;100.00;101967.94;5278142;28;20064;-67
2023/06/03 08:05:00;;;;;;;5.05;1.83;;;;;;;17.17;100.00;101972.84;5276584;28;20127;-67
2023/06/03 08:07:32;;;;;;;8.02;1.85;;;;;;;17.08;100.00;101970.94;5266004;28;20032;-68
2023/06/03 08:10:04;;;;;;;6.25;2.15;;;;;;;17.13;100.00;101966.84;5272473;28;20032;-68
2023/06/03 08:12:45;;;;;;;3.55;1.45;;;;;;;17.27;100.00;101962.94;5275358;28;20132;-68
2023/06/03 08:15:35;;;;;;;9.68;1.95;;;;;;;17.42;100.00;101960.75;5260849;28;20064;-68
2023/06/03 08:18:07;;;;;;;3.45;1.38;;;;;;;17.48;95.88;101957.50;5269085;28;20029;-68
2023/06/03 08:20:38;;;;;;;4.82;2.05;;;;;;;17.51;91.71;101965.34;5269529;28;20037;-68
2023/06/03 08:23:10;;;;;;;3.70;1.30;;;;;;;17.72;92.42;101959.91;5260207;28;20036;-68
2023/06/03 08:25:42;;;;;;;11.30;1.83;;;;;;;17.75;95.15;101956.91;5271740;28;20107;-68
2023/06/03 08:28:14;;;;;;;4.72;1.58;;;;;;;17.88;87.79;101962.09;5275171;28;20152;-68
2023/06/03 08:30:45;;;;;;;4.93;1.20;;;;;;;17.99;87.37;101955.75;5262989;28;20025;-68
2023/06/03 08:33:17;;;;;;;3.83;1.15;;;;;;;18.17;86.26;101958.59;5277819;28;20043;-68
2023/06/03 08:35:48;;;;;;;3.80;1.40;;;;;;;18.26;80.52;101952.38;5271954;28;20060;-68
2023/06/03 08:38:20;;;;;;;2.65;1.40;;;;;;;18.33;84.52;101963.44;5281074;28;20086;-68
2023/06/03 08:40:52;;;;;;;4.38;1.33;;;;;;;18.44;87.11;101959.78;5281881;28;20029;-68
2023/06/03 08:43:32;;;;;;;3.97;1.30;;;;;;;18.50;81.17;101962.75;5274909;28;20386;-68
2023/06/03 08:46:06;;;;;;;7.18;1.88;;;;;;;18.57;80.26;101950.38;5274675;28;20107;-68
2023/06/03 08:48:40;;;;;;;;;;;;;;;18.70;91.63;101957.34;5282225;28;20075;-68
2023/06/03 08:51:14;;;;;;;3.90;1.15;;;;;;;18.68;80.60;101957.50;5264901;28;19912;-68
2023/06/03 08:53:52;;;;;;;6.13;1.45;;;;;;;18.81;83.04;101954.50;5276079;28;20402;-68
2023/06/03 08:56:26;;;;;;;3.10;1.20;;;;;;;18.81;82.05;101962.63;5277597;28;20104;-68
2023/06/03 08:59:02;;;;;;;6.90;1.38;;;;;;;18.76;80.08;101954.91;5275238;28;20047;-68
2023/06/03 09:01:37;;;;;;;6.70;1.30;;;;;;;18.89;75.18;101962.78;5274274;28;20070;-68
2023/06/03 09:04:12;;;;;;;3.83;1.33;;;;;;;18.99;74.90;101960.88;5270073;28;20036;-68
2023/06/03 09:06:45;;;;;;;3.92;1.50;;;;;;;18.90;72.99;101950.94;5277369;28;20047;-68
2023/06/03 09:09:18;;;;;;;4.55;1.20;;;;;;;18.99;79.22;101951.94;5267267;28;20037;-68
2023/06/03 09:11:50;;;;;;;7.07;1.45;;;;;;;19.03;82.47;101950.63;5271722;28;20883;-68
2023/06/03 09:14:21;;;;;;;4.82;1.42;;;;;;;19.10;77.66;101953.59;5269305;28;20024;-68
2023/06/03 09:16:53;;;;;;;4.53;1.30;;;;;;;19.10;76.14;101953.59;5270781;28;20029;-68
2023/06/03 09:19:26;;;;;;;4.93;1.60;;;;;;;19.14;73.91;101955.03;5264583;28;20025;-68
2023/06/03 09:21:58;;;;;;;3.00;1.08;;;;;;;19.14;74.97;101953.19;5266491;28;20031;-68
2023/06/03 09:24:29;;;;;;;4.30;1.50;;;;;;;19.20;71.87;101962.56;5274300;28;20111;-68
2023/06/03 09:27:01;;;;;;;4.03;1.13;;;;;;;19.24;80.55;101968.53;5275505;28;20032;-68
2023/06/03 09:29:33;;;;;;;5.70;1.25;;;;;;;19.45;73.95;101952.94;5278254;28;20038;-68
2023/06/03 09:32:07;;;;;;;5.05;1.80;;;;;;;19.43;70.10;101956.78;5277424;28;20039;-68
2023/06/03 09:34:39;;;;;;;8.30;1.40;;;;;;;19.48;72.71;101946.34;5274253;28;20028;-68
2023/06/03 09:37:10;;;;;;;3.70;1.10;;;;;;;19.69;68.89;101957.78;5266761;28;20040;-69
2023/06/03 09:39:43;;;;;;;3.95;1.30;;;;;;;19.57;71.84;101948.16;5275691;28;20035;-68
2023/06/03 09:42:15;;;;;;;4.40;1.13;;;;;;;19.64;61.50;101957.41;5268874;28;20028;-69
2023/06/03 09:44:49;;;;;;;5.82;1.10;;;;;;;19.52;65.04;101948.63;5273559;28;20021;-68
2023/06/03 09:47:20;;;;;;;3.75;1.20;;;;;;;19.70;65.75;101947.84;5280995;28;20051;-68
2023/06/03 09:50:06;;;;;;;4.93;1.20;;;;;;;19.75;64.76;101954.53;5270013;28;20040;-68
2023/06/03 09:52:37;;;;;;;2.35;1.08;;;;;;;19.76;63.70;101950.81;5276090;28;20051;-69
2023/06/03 09:55:10;;;;;;;5.22;0.95;;;;;;;19.86;64.89;101956.16;5267357;28;20032;-69
2023/06/03 09:57:41;;;;;;;2.67;1.00;;;;;;;19.93;58.41;101953.72;5266127;28;20033;-69
2023/06/03 10:00:13;;;;;;;3.78;1.30;;;;;;;19.91;63.88;101966.56;5272333;28;20102;-69
2023/06/03 10:02:46;;;;;;;3.80;1.45;;;;;;;19.90;60.07;101968.41;5273524;28;20050;-68
2023/06/03 10:05:30;;;;;;;4.03;0.88;;;;;;;19.90;55.78;101949.44;5268564;28;20052;-69
2023/06/03 10:08:04;;;;;;;3.67;1.00;;;;;;;19.89;52.10;101955.03;5275586;28;20421;-69
2023/06/03 10:10:53;;;;;;;3.63;1.10;;;;;;;19.90;61.68;101962.16;5267095;28;20033;-68
2023/06/03 10:13:25;;;;;;;4.13;0.88;;;;;;;19.96;58.35;101961.53;5270167;28;20093;-69
2023/06/03 10:15:58;;;;;;;5.28;1.08;;;;;;;20.01;53.00;101955.69;5267564;28;20025;-69
2023/06/03 10:18:39;;;;;;;3.37;1.13;;;;;;;20.10;56.13;101954.75;5268874;28;20036;-69
2023/06/03 10:21:12;;;;;;;6.53;1.00;;;;;;;20.04;48.48;101958.94;5268506;28;20289;-69
2023/06/03 10:23:44;;;;;;;4.60;1.15;;;;;;;20.11;48.42;101951.88;5273073;28;20032;-69
2023/06/03 10:26:16;;;;;;;4.50;1.05;;;;;;;20.17;55.16;101953.13;5283342;28;20029;-69
2023/06/03 10:28:49;;;;;;;4.95;0.90;;;;;;;20.28;50.42;101965.63;5269042;28;20021;-69
2023/06/03 10:31:22;;;;;;;2.20;0.90;;;;;;;20.21;45.88;101959.94;5276586;28;20061;-69
2023/06/03 10:33:54;;;;;;;4.22;1.10;;;;;;;20.15;49.12;101960.56;5274055;28;20024;-68
2023/06/03 10:36:26;;;;;;;4.57;1.15;;;;;;;20.24;54.45;101947.97;5266970;28;20033;-69
2023/06/03 10:39:08;;;;;;;4.13;0.80;;;;;;;20.36;51.18;101944.88;5261749;28;20071;-69
2023/06/03 10:41:40;;;;;;;3.00;1.10;;;;;;;20.43;47.55;101944.25;5272752;28;20122;-68
2023/06/03 10:44:12;;;;;;;3.55;0.77;;;;;;;20.42;56.56;101948.78;5279607;28;20058;-69
2023/06/03 10:46:51;;;;;;;2.38;0.68;;;;;;;20.54;50.25;101946.72;5278755;28;20387;-69
2023/06/03 10:49:26;;;;;;;2.35;0.80;;;;;;;20.50;47.64;101951.59;5274359;28;20478;-70
2023/06/03 10:52:20;;;;;;;4.00;0.80;;;;;;;20.49;46.53;101951.75;5263146;28;20491;-69
2023/06/03 10:55:11;;;;;;;2.97;0.98;;;;;;;20.62;54.05;101954.94;5265591;28;20025;-69
2023/06/03 10:57:48;;;;;;;3.28;0.90;;;;;;;20.63;50.97;101958.50;5266274;28;20173;-69
2023/06/03 11:00:57;;;;;;;4.95;1.20;;;;;;;20.65;55.69;101945.63;5265654;28;20498;-69
2023/06/03 11:03:30;;;;;;;2.63;0.70;;;;;;;20.64;46.65;101944.78;5269688;28;20032;-69
2023/06/03 11:06:38;;;;;;;3.40;1.02;;;;;;;20.76;50.75;101937.25;5275361;28;20044;-69
2023/06/03 11:09:12;;;;;;;2.30;0.60;;;;;;;20.78;47.26;101946.09;5275318;28;20064;-69
2023/06/03 11:11:44;;;;;;;4.43;0.88;;;;;;;20.79;46.91;101938.78;5272190;28;20478;-69
2023/06/03 11:14:24;;;;;;;4.57;0.80;;;;;;;20.80;48.67;101937.81;5273350;28;20060;-69
2023/06/03 11:16:56;;;;;;;2.63;0.88;;;;;;;20.96;53.34;101943.34;5266994;28;20085;-69
2023/06/03 11:19:30;;;;;;;2.33;0.52;;;;;;;20.98;46.42;101935.91;5264996;28;20033;-69
2023/06/03 11:22:07;;;;;;;4.28;0.90;;;;;;;21.04;45.82;101943.41;5271236;28;20033;-69
2023/06/03 11:24:41;;;;;;;2.00;0.90;;;;;;;20.98;43.99;101940.47;5266333;28;20024;-69
2023/06/03 11:27:15;;;;;;;2.50;0.70;;;;;;;20.98;49.70;101943.16;5266026;28;20036;-70
2023/06/03 11:29:50;;;;;;;1.83;0.63;;;;;;;21.13;44.13;101938.88;5264566;28;20470;-69
2023/06/03 11:32:25;;;;;;;2.70;0.75;;;;;;;21.18;43.87;101936.53;5269363;28;20163;-69
2023/06/03 11:34:59;;;;;;;3.17;0.82;;;;;;;21.23;43.54;101942.34;5274951;28;20025;-70
2023/06/03 11:37:40;;;;;;;2.75;0.63;;;;;;;21.29;43.32;101938.97;5276869;28;20172;-70
2023/06/03 11:40:19;;;;;;;3.20;0.80;;;;;;;21.20;39.48;101939.09;5269198;28;20232;-69
2023/06/03 11:42:50;;;;;;;2.65;0.82;;;;;;;21.28;40.41;101945.41;5270349;28;20079;-69
2023/06/03 11:45:24;;;;;;;2.17;0.90;;;;;;;21.28;40.51;101926.41;5270428;28;20041;-69
2023/06/03 11:48:05;;;;;;;3.08;0.75;;;;;;;21.30;45.74;101929.81;5276755;28;20482;-69